createdAt,value
2019-03-25T00:00:33.244Z,34.12
2019-03-25T00:02:35.438Z,34.16
2019-03-25T00:04:37.642Z,34.16
2019-03-25T00:06:39.836Z,34.16
2019-03-25T00:08:42.034Z,34.15
2019-03-25T00:10:44.239Z,34.19
2019-03-25T00:12:46.432Z,34.20
2019-03-25T00:14:48.629Z,34.17
2019-03-25T00:16:50.823Z,34.20
2019-03-25T00:18:53.012Z,34.21
2019-03-25T00:20:55.210Z,34.19
2019-03-25T00:22:57.408Z,34.11
2019-03-25T00:24:59.606Z,34.11
2019-03-25T00:27:01.816Z,34.11
2019-03-25T00:29:04.021Z,34.06
2019-03-25T00:31:06.231Z,34.08
2019-03-25T00:33:08.421Z,34.03
2019-03-25T00:35:10.622Z,34.04
2019-03-25T00:37:12.825Z,34.01
2019-03-25T00:39:15.020Z,34.07
2019-03-25T00:41:17.223Z,34.00
2019-03-25T00:43:19.426Z,34.06
2019-03-25T00:45:21.634Z,33.95
2019-03-25T00:47:23.825Z,33.98
2019-03-25T00:49:26.016Z,34.04
2019-03-25T00:51:28.227Z,33.98
2019-03-25T00:53:30.425Z,33.94
2019-03-25T00:55:32.622Z,34.02
2019-03-25T00:57:34.820Z,33.96
2019-03-25T00:59:37.009Z,33.98
2019-03-25T01:01:39.211Z,33.95
2019-03-25T01:03:41.414Z,33.98
2019-03-25T01:05:43.608Z,34.01
2019-03-25T01:07:45.804Z,33.98
2019-03-25T01:09:48.008Z,33.89
2019-03-25T01:11:50.210Z,33.99
2019-03-25T01:13:52.402Z,33.95
2019-03-25T01:15:54.610Z,34.00
2019-03-25T01:17:56.813Z,33.97
2019-03-25T01:19:59.027Z,33.93
2019-03-25T01:22:01.228Z,33.97
2019-03-25T01:24:03.452Z,34.01
2019-03-25T01:26:05.647Z,33.95
2019-03-25T01:28:07.837Z,33.99
2019-03-25T01:30:10.050Z,34.05
2019-03-25T01:32:12.250Z,33.97
2019-03-25T01:34:14.444Z,34.06
2019-03-25T01:36:16.641Z,34.06
2019-03-25T01:38:18.837Z,34.06
2019-03-25T01:40:21.032Z,34.08
2019-03-25T01:42:23.223Z,33.99
2019-03-25T01:44:25.418Z,34.08
2019-03-25T01:46:27.632Z,34.09
2019-03-25T01:48:29.828Z,34.02
2019-03-25T01:50:32.025Z,34.09
2019-03-25T01:52:34.216Z,34.11
2019-03-25T01:54:36.413Z,34.16
2019-03-25T01:56:38.617Z,34.10
2019-03-25T01:58:40.811Z,34.16
2019-03-25T02:00:43.027Z,34.12
2019-03-25T02:02:45.224Z,34.20
2019-03-25T02:04:47.419Z,34.17
2019-03-25T02:06:49.645Z,34.21
2019-03-25T02:08:51.841Z,34.18
2019-03-25T02:10:54.047Z,34.24
2019-03-25T02:12:56.249Z,34.25
2019-03-25T02:14:58.513Z,34.19
2019-03-25T02:17:00.718Z,34.14
2019-03-25T02:19:02.920Z,34.20
2019-03-25T02:21:05.129Z,34.16
2019-03-25T02:23:07.642Z,34.18
2019-03-25T02:25:09.953Z,34.23
2019-03-25T02:27:12.160Z,34.16
2019-03-25T02:29:14.360Z,34.24
2019-03-25T02:31:16.571Z,34.23
2019-03-25T02:33:18.774Z,34.22
2019-03-25T02:35:21.011Z,34.26
2019-03-25T02:37:23.224Z,34.22
2019-03-25T02:39:25.435Z,34.27
2019-03-25T02:41:27.630Z,34.29
2019-03-25T02:43:29.827Z,34.27
2019-03-25T02:45:32.034Z,34.29
2019-03-25T02:47:34.251Z,34.29
2019-03-25T02:49:36.446Z,34.31
2019-03-25T02:51:38.663Z,34.37
2019-03-25T02:53:40.861Z,34.37
2019-03-25T02:55:43.078Z,34.38
2019-03-25T02:57:45.277Z,34.43
2019-03-25T02:59:47.480Z,34.37
2019-03-25T03:01:49.681Z,34.39
2019-03-25T03:03:51.869Z,34.49
2019-03-25T03:05:54.080Z,34.41
2019-03-25T03:07:56.283Z,34.49
2019-03-25T03:09:58.482Z,34.44
2019-03-25T03:12:00.694Z,34.46
2019-03-25T03:14:02.902Z,34.49
2019-03-25T03:16:05.107Z,34.45
2019-03-25T03:18:07.315Z,34.64
2019-03-25T03:20:09.529Z,34.67
2019-03-25T03:22:11.725Z,34.69
2019-03-25T03:24:13.919Z,34.74
2019-03-25T03:26:16.122Z,34.72
2019-03-25T03:28:18.322Z,34.72
2019-03-25T03:30:20.543Z,34.69
2019-03-25T03:32:22.762Z,34.73
2019-03-25T03:34:24.993Z,34.77
2019-03-25T03:36:27.209Z,34.75
2019-03-25T03:38:29.414Z,34.79
2019-03-25T03:40:31.632Z,34.71
2019-03-25T03:42:33.839Z,34.77
2019-03-25T03:44:36.054Z,34.75
2019-03-25T03:46:38.346Z,34.81
2019-03-25T03:48:40.553Z,34.74
2019-03-25T03:50:42.757Z,34.81
2019-03-25T03:52:45.011Z,34.80
2019-03-25T03:54:47.230Z,34.85
2019-03-25T03:56:49.458Z,34.88
2019-03-25T03:58:51.664Z,34.87
2019-03-25T04:00:53.880Z,34.96
2019-03-25T04:02:56.092Z,34.91
2019-03-25T04:04:58.293Z,34.88
2019-03-25T04:07:00.490Z,34.87
2019-03-25T04:09:02.695Z,34.89
2019-03-25T04:11:04.915Z,34.98
2019-03-25T04:13:07.125Z,34.96
2019-03-25T04:15:09.333Z,34.94
2019-03-25T04:17:11.532Z,34.96
2019-03-25T04:19:13.731Z,34.98
2019-03-25T04:21:15.930Z,34.98
2019-03-25T04:23:18.132Z,34.91
2019-03-25T04:25:20.334Z,34.95
2019-03-25T04:27:22.565Z,34.93
2019-03-25T04:29:24.772Z,34.96
2019-03-25T04:31:26.973Z,35.03
2019-03-25T04:33:29.183Z,35.00
2019-03-25T04:35:31.382Z,35.02
2019-03-25T04:37:33.593Z,35.06
2019-03-25T04:39:35.806Z,35.00
2019-03-25T04:41:38.013Z,35.01
2019-03-25T04:43:40.215Z,34.95
2019-03-25T04:45:42.409Z,35.06
2019-03-25T04:47:44.602Z,35.13
2019-03-25T04:49:46.840Z,35.11
2019-03-25T04:51:49.047Z,35.06
2019-03-25T04:53:51.241Z,35.08
2019-03-25T04:55:53.432Z,35.07
2019-03-25T04:57:55.640Z,35.06
2019-03-25T04:59:57.834Z,35.15
2019-03-25T05:02:00.032Z,35.08
2019-03-25T05:04:02.227Z,35.11
2019-03-25T05:06:04.419Z,35.15
2019-03-25T05:08:06.631Z,35.11
2019-03-25T05:10:08.831Z,35.12
2019-03-25T05:12:11.036Z,35.08
2019-03-25T05:14:13.235Z,35.12
2019-03-25T05:16:15.430Z,35.26
2019-03-25T05:18:17.631Z,35.29
2019-03-25T05:20:19.826Z,35.34
2019-03-25T05:22:22.023Z,35.30
2019-03-25T05:24:24.216Z,35.36
2019-03-25T05:26:26.408Z,35.34
2019-03-25T05:28:28.614Z,35.39
2019-03-25T05:30:30.818Z,35.37
2019-03-25T05:32:33.043Z,35.45
2019-03-25T05:34:35.248Z,35.47
2019-03-25T05:36:37.456Z,35.44
2019-03-25T05:38:39.672Z,35.58
2019-03-25T05:40:41.886Z,35.47
2019-03-25T05:42:44.093Z,35.42
2019-03-25T05:44:46.293Z,35.44
2019-03-25T05:46:48.508Z,35.37
2019-03-25T05:48:50.717Z,35.07
2019-03-25T05:50:52.927Z,35.11
2019-03-25T05:52:55.142Z,34.94
2019-03-25T05:54:57.351Z,34.89
2019-03-25T05:57:02.808Z,35.07
2019-03-25T05:59:05.246Z,35.00
2019-03-25T06:01:07.443Z,34.99
2019-03-25T06:03:09.679Z,35.01
2019-03-25T06:05:11.886Z,35.05
2019-03-25T06:07:14.092Z,35.08
2019-03-25T06:09:16.302Z,34.94
2019-03-25T06:11:18.511Z,34.91
2019-03-25T06:13:20.719Z,35.15
2019-03-25T06:15:22.930Z,34.92
2019-03-25T06:17:25.149Z,34.96
2019-03-25T06:19:27.355Z,35.07
2019-03-25T06:21:29.564Z,35.08
2019-03-25T06:23:31.774Z,35.13
2019-03-25T06:25:33.986Z,35.17
2019-03-25T06:27:36.188Z,35.19
2019-03-25T06:29:38.385Z,35.09
2019-03-25T06:31:40.574Z,35.17
2019-03-25T06:33:42.773Z,35.13
2019-03-25T06:35:44.968Z,35.03
2019-03-25T06:37:47.169Z,35.12
2019-03-25T06:39:49.419Z,35.21
2019-03-25T06:41:51.612Z,35.38
2019-03-25T06:43:53.809Z,35.59
2019-03-25T06:45:56.002Z,35.57
2019-03-25T06:47:58.209Z,35.51
2019-03-25T06:50:00.476Z,35.26
2019-03-25T06:52:02.687Z,35.22
2019-03-25T06:54:12.132Z,35.41
2019-03-25T06:56:22.646Z,35.45
2019-03-25T06:58:24.853Z,35.22
2019-03-25T07:00:27.058Z,35.24
2019-03-25T07:02:29.254Z,35.29
2019-03-25T07:04:31.447Z,35.98
2019-03-25T07:06:33.662Z,35.93
2019-03-25T07:08:35.868Z,35.62
2019-03-25T07:10:38.064Z,35.57
2019-03-25T07:12:40.277Z,35.54
2019-03-25T07:14:42.477Z,35.79
2019-03-25T07:16:44.675Z,36.40
2019-03-25T07:18:46.870Z,36.46
2019-03-25T07:20:49.074Z,36.32
2019-03-25T07:22:51.282Z,35.89
2019-03-25T07:24:53.485Z,35.50
2019-03-25T07:26:55.693Z,36.21
2019-03-25T07:28:57.903Z,37.28
2019-03-25T07:31:00.097Z,37.63
2019-03-25T07:33:02.291Z,37.52
2019-03-25T07:35:04.487Z,36.98
2019-03-25T07:37:06.683Z,36.90
2019-03-25T07:39:08.891Z,36.91
2019-03-25T07:41:11.107Z,37.31
2019-03-25T07:43:13.321Z,36.76
2019-03-25T07:45:15.519Z,37.62
2019-03-25T07:47:17.718Z,37.63
2019-03-25T07:49:19.920Z,37.92
2019-03-25T07:51:22.119Z,38.10
2019-03-25T07:53:24.342Z,37.66
2019-03-25T07:55:26.597Z,37.40
2019-03-25T07:57:28.794Z,37.10
2019-03-25T07:59:31.018Z,37.17
2019-03-25T08:01:33.213Z,36.31
2019-03-25T08:03:35.429Z,36.28
2019-03-25T08:05:37.647Z,36.15
2019-03-25T08:07:39.885Z,36.06
2019-03-25T08:09:42.103Z,36.18
2019-03-25T08:11:44.318Z,36.26
2019-03-25T08:13:46.559Z,36.26
2019-03-25T08:15:48.777Z,36.19
2019-03-25T08:17:51.000Z,36.05
2019-03-25T08:19:53.204Z,36.01
2019-03-25T08:21:55.418Z,36.04
2019-03-25T08:23:57.629Z,35.90
2019-03-25T08:25:59.836Z,35.82
2019-03-25T08:28:02.053Z,35.74
2019-03-25T08:30:04.260Z,35.66
2019-03-25T08:32:06.533Z,35.53
2019-03-25T08:34:08.750Z,35.46
2019-03-25T08:36:10.966Z,35.39
2019-03-25T08:38:13.175Z,35.31
2019-03-25T08:40:15.377Z,35.02
2019-03-25T08:42:17.585Z,34.48
2019-03-25T08:44:19.785Z,34.31
2019-03-25T08:46:22.013Z,34.38
2019-03-25T08:48:24.210Z,34.42
2019-03-25T08:50:26.422Z,34.39
2019-03-25T08:52:28.625Z,34.36
2019-03-25T08:54:30.829Z,34.41
2019-03-25T08:56:33.031Z,34.19
2019-03-25T08:58:35.238Z,34.11
2019-03-25T09:00:37.434Z,34.09
2019-03-25T09:02:39.634Z,33.98
2019-03-25T09:04:41.837Z,33.78
2019-03-25T09:06:44.029Z,33.81
2019-03-25T09:08:46.237Z,33.81
2019-03-25T09:10:48.434Z,33.79
2019-03-25T09:12:50.634Z,33.36
2019-03-25T09:14:52.831Z,33.37
2019-03-25T09:16:55.025Z,33.25
2019-03-25T09:18:57.228Z,33.22
2019-03-25T09:20:59.430Z,32.96
2019-03-25T09:23:01.634Z,32.93
2019-03-25T09:25:03.860Z,32.73
2019-03-25T09:27:06.061Z,32.72
2019-03-25T09:29:08.311Z,32.58
2019-03-25T09:31:10.549Z,32.60
2019-03-25T09:33:12.774Z,32.57
2019-03-25T09:35:14.999Z,32.63
2019-03-25T09:37:17.196Z,32.61
2019-03-25T09:39:19.411Z,32.54
2019-03-25T09:41:21.609Z,32.59
2019-03-25T09:43:23.820Z,32.48
2019-03-25T09:45:26.024Z,32.47
2019-03-25T09:47:28.241Z,32.35
2019-03-25T09:49:30.454Z,32.26
2019-03-25T09:51:32.658Z,32.21
2019-03-25T09:53:34.853Z,32.08
2019-03-25T09:55:37.063Z,32.11
2019-03-25T09:57:39.320Z,32.08
2019-03-25T09:59:41.599Z,32.06
2019-03-25T10:01:43.826Z,31.60
2019-03-25T10:03:46.073Z,31.29
2019-03-25T10:05:48.283Z,31.21
2019-03-25T10:07:50.495Z,31.51
2019-03-25T10:09:52.707Z,31.51
2019-03-25T10:11:54.916Z,31.55
2019-03-25T10:13:57.184Z,31.67
2019-03-25T10:15:59.394Z,31.64
2019-03-25T10:18:01.595Z,31.54
2019-03-25T10:20:03.796Z,31.55
2019-03-25T10:22:06.065Z,31.20
2019-03-25T10:24:08.359Z,31.10
2019-03-25T10:26:10.590Z,30.84
2019-03-25T10:28:12.792Z,30.61
2019-03-25T10:30:15.007Z,30.55
2019-03-25T10:32:17.216Z,30.55
2019-03-25T10:34:19.435Z,30.43
2019-03-25T10:36:21.650Z,30.34
2019-03-25T10:38:23.852Z,29.96
2019-03-25T10:40:26.052Z,29.92
2019-03-25T10:42:28.251Z,29.83
2019-03-25T10:44:30.461Z,29.70
2019-03-25T10:46:32.691Z,29.76
2019-03-25T10:48:34.897Z,29.38
2019-03-25T10:50:37.109Z,29.53
2019-03-25T10:52:39.320Z,29.66
2019-03-25T10:54:41.626Z,29.57
2019-03-25T10:56:49.097Z,29.52
2019-03-25T10:58:58.026Z,29.50
2019-03-25T11:00:58.240Z,29.55
2019-03-25T11:03:01.249Z,29.46
2019-03-25T11:05:03.457Z,29.56
2019-03-25T11:07:05.689Z,29.29
2019-03-25T11:09:07.924Z,29.23
2019-03-25T11:11:10.126Z,29.22
2019-03-25T11:13:12.335Z,29.25
2019-03-25T11:15:14.544Z,29.16
2019-03-25T11:17:16.749Z,29.08
2019-03-25T11:19:18.962Z,29.02
2019-03-25T11:21:21.171Z,29.10
2019-03-25T11:23:23.411Z,29.07
2019-03-25T11:25:25.621Z,29.07
2019-03-25T11:27:27.829Z,29.06
2019-03-25T11:29:30.025Z,29.03
2019-03-25T11:31:32.232Z,28.89
2019-03-25T11:33:34.439Z,28.76
2019-03-25T11:35:36.640Z,28.83
2019-03-25T11:37:38.853Z,28.75
2019-03-25T11:39:41.054Z,28.79
2019-03-25T11:41:43.259Z,28.73
2019-03-25T11:43:45.460Z,28.98
2019-03-25T11:45:47.673Z,28.74
2019-03-25T11:47:49.883Z,28.76
2019-03-25T11:49:52.123Z,28.58
2019-03-25T11:51:54.328Z,28.80
2019-03-25T11:53:58.638Z,28.77
2019-03-25T11:56:00.984Z,28.52
2019-03-25T11:58:03.198Z,28.36
2019-03-25T12:00:05.409Z,28.22
2019-03-25T12:02:17.117Z,28.02
2019-03-25T12:04:14.815Z,28.05
2019-03-25T12:06:17.024Z,27.37
2019-03-25T12:08:19.240Z,27.28
2019-03-25T12:10:21.447Z,26.58
2019-03-25T12:12:23.657Z,26.91
2019-03-25T12:14:25.920Z,26.54
2019-03-25T12:16:28.129Z,26.36
2019-03-25T12:18:30.341Z,26.52
2019-03-25T12:20:32.561Z,27.03
2019-03-25T12:22:34.774Z,27.03
2019-03-25T12:24:37.000Z,26.39
2019-03-25T12:26:39.402Z,25.96
2019-03-25T12:28:41.660Z,25.72
2019-03-25T12:30:43.870Z,25.66
2019-03-25T12:32:46.078Z,25.83
2019-03-25T12:34:48.302Z,25.42
2019-03-25T12:36:50.517Z,25.36
2019-03-25T12:38:52.730Z,25.58
2019-03-25T12:40:54.964Z,25.61
2019-03-25T12:42:57.173Z,25.74
2019-03-25T12:44:59.386Z,26.02
2019-03-25T12:47:01.597Z,26.24
2019-03-25T12:49:03.802Z,26.45
2019-03-25T12:51:06.018Z,26.68
2019-03-25T12:53:08.237Z,26.67
2019-03-25T12:55:10.445Z,26.89
2019-03-25T12:57:12.652Z,27.07
2019-03-25T12:59:14.859Z,27.12
2019-03-25T13:01:17.073Z,27.23
2019-03-25T13:03:19.280Z,26.91
2019-03-25T13:05:21.498Z,26.81
2019-03-25T13:07:23.699Z,26.92
2019-03-25T13:09:25.908Z,26.94
2019-03-25T13:11:28.120Z,27.05
2019-03-25T17:39:01.741Z,26.27
2019-03-25T17:41:02.966Z,26.20
2019-03-25T17:43:05.178Z,26.31
2019-03-25T17:45:06.395Z,26.36
2019-03-25T17:47:07.607Z,26.34
2019-03-25T17:49:09.815Z,26.38
2019-03-25T17:51:11.000Z,26.48
2019-03-25T17:53:12.197Z,26.57
2019-03-25T17:55:13.402Z,26.42
2019-03-25T17:57:14.586Z,26.36
2019-03-25T17:59:15.780Z,26.41
2019-03-25T18:01:16.973Z,26.36
2019-03-25T18:03:18.170Z,26.44
2019-03-25T18:05:19.360Z,26.56
2019-03-25T18:07:20.548Z,26.70
2019-03-25T18:09:21.742Z,26.62
2019-03-25T18:11:23.054Z,26.56
2019-03-25T18:13:24.261Z,26.58
2019-03-25T18:15:25.462Z,26.57
2019-03-25T18:17:26.657Z,26.68
2019-03-25T18:19:27.862Z,26.66
2019-03-25T18:21:29.067Z,26.79
2019-03-25T18:23:30.271Z,26.79
2019-03-25T18:25:31.498Z,26.67
2019-03-25T18:27:32.680Z,26.72
2019-03-25T18:29:33.870Z,26.66
2019-03-25T18:31:43.263Z,26.63
2019-03-25T18:33:41.220Z,26.81
2019-03-25T18:35:42.449Z,26.73
2019-03-25T18:37:43.644Z,26.66
2019-03-25T18:39:44.830Z,26.60
2019-03-25T18:41:46.022Z,26.63
2019-03-25T18:43:47.207Z,26.61
2019-03-25T18:45:48.457Z,26.69
2019-03-25T18:47:49.658Z,26.79
2019-03-25T18:49:50.874Z,26.72
2019-03-25T18:51:52.065Z,26.96
2019-03-25T18:53:53.290Z,26.77
2019-03-25T18:55:54.510Z,26.94
2019-03-25T18:57:55.699Z,26.71
2019-03-25T18:59:56.892Z,26.70
2019-03-25T19:01:58.087Z,26.67
2019-03-25T19:03:59.307Z,26.72
2019-03-25T19:06:00.521Z,26.86
2019-03-25T19:08:01.769Z,26.81
2019-03-25T19:10:03.030Z,26.73
2019-03-25T19:12:04.277Z,26.83
2019-03-25T19:14:05.483Z,26.96
2019-03-25T19:16:06.673Z,26.72
2019-03-25T19:18:07.967Z,26.58
2019-03-25T19:20:09.161Z,26.69
2019-03-25T19:22:12.636Z,26.64
2019-03-25T19:24:14.162Z,26.52
2019-03-25T19:26:15.405Z,26.50
2019-03-25T19:28:16.653Z,26.61
2019-03-25T19:30:17.969Z,26.76
2019-03-25T19:32:19.198Z,26.53
2019-03-25T19:34:20.394Z,26.50
2019-03-25T19:36:21.593Z,26.53
2019-03-25T19:38:22.780Z,26.46
2019-03-25T19:40:23.974Z,26.46
2019-03-25T19:42:25.159Z,26.55
2019-03-25T19:44:26.403Z,26.71
2019-03-25T19:46:27.637Z,26.52
2019-03-25T19:48:28.989Z,26.48
2019-03-25T19:50:30.327Z,26.49
2019-03-25T19:52:31.578Z,26.42
2019-03-25T19:54:32.775Z,26.57
2019-03-25T19:56:34.024Z,26.51
2019-03-25T19:58:35.253Z,26.54
2019-03-25T20:00:36.444Z,26.58
2019-03-25T20:02:37.655Z,26.57
2019-03-25T20:04:38.890Z,26.54
2019-03-25T20:06:40.077Z,26.50
2019-03-25T20:08:41.368Z,26.57
2019-03-25T20:10:42.714Z,26.50
2019-03-25T20:12:43.924Z,26.60
2019-03-25T20:14:45.151Z,26.58
2019-03-25T20:16:46.395Z,26.63
2019-03-25T20:18:47.583Z,26.65
2019-03-25T20:20:48.884Z,26.63
2019-03-25T20:22:50.134Z,26.64
2019-03-25T20:24:51.364Z,26.66
2019-03-25T20:26:52.632Z,26.64
2019-03-25T20:28:53.847Z,26.64
2019-03-25T20:30:55.067Z,26.64
2019-03-25T20:32:56.290Z,26.66
2019-03-25T20:34:57.540Z,26.75
2019-03-25T20:36:58.831Z,26.72
2019-03-25T20:39:00.038Z,26.79
2019-03-25T20:41:01.228Z,26.81
2019-03-25T20:43:02.437Z,26.83
2019-03-25T20:45:03.698Z,26.76
2019-03-25T20:47:04.997Z,26.87
2019-03-25T20:49:06.250Z,26.79
2019-03-25T20:51:07.482Z,26.83
2019-03-25T20:53:08.677Z,26.91
2019-03-25T20:55:09.882Z,26.97
2019-03-25T20:57:11.361Z,27.00
2019-03-25T20:59:12.814Z,27.00
2019-03-25T21:01:14.017Z,27.14
2019-03-25T21:03:15.256Z,27.17
2019-03-25T21:05:16.460Z,27.27
2019-03-25T21:07:17.695Z,27.35
2019-03-25T21:09:18.923Z,27.37
2019-03-25T21:11:20.190Z,27.48
2019-03-25T21:13:21.414Z,27.53
2019-03-25T21:15:22.680Z,27.61
2019-03-25T21:17:23.911Z,27.68
2019-03-25T21:19:25.148Z,27.72
2019-03-25T21:21:26.412Z,27.74
2019-03-25T21:23:27.629Z,27.60
2019-03-25T21:25:28.820Z,27.67
2019-03-25T21:27:30.022Z,27.72
2019-03-25T21:29:31.214Z,27.77
2019-03-25T21:31:32.419Z,27.91
2019-03-25T21:33:33.661Z,27.97
2019-03-25T21:35:34.866Z,28.04
2019-03-25T21:37:36.088Z,28.06
2019-03-25T21:39:37.286Z,28.10
2019-03-25T21:41:38.557Z,28.13
2019-03-25T21:43:39.816Z,28.24
2019-03-25T21:45:40.999Z,28.07
2019-03-25T21:47:42.203Z,28.20
2019-03-25T21:49:43.456Z,28.21
2019-03-25T21:51:44.663Z,28.12
2019-03-25T21:53:45.855Z,28.21
2019-03-25T21:55:47.132Z,28.22
2019-03-25T21:57:48.318Z,28.22
2019-03-25T21:59:49.508Z,28.24
2019-03-25T22:01:50.801Z,28.28
2019-03-25T22:03:51.987Z,28.23
2019-03-25T22:05:53.174Z,28.31
2019-03-25T22:07:54.373Z,28.38
2019-03-25T22:09:55.563Z,28.43
2019-03-25T22:11:56.749Z,28.51
2019-03-25T22:13:57.927Z,28.54
2019-03-25T22:15:59.126Z,28.55
2019-03-25T22:18:00.306Z,28.57
2019-03-25T22:20:01.494Z,28.70
2019-03-25T22:22:02.690Z,28.66
2019-03-25T22:24:03.889Z,28.58
2019-03-25T22:26:05.075Z,28.76
2019-03-25T22:28:06.262Z,28.78
2019-03-25T22:30:07.449Z,28.76
2019-03-25T22:32:08.645Z,28.88
2019-03-25T22:34:09.836Z,28.94
2019-03-25T22:36:11.024Z,29.03
2019-03-25T22:38:13.226Z,29.10
2019-03-25T22:40:14.415Z,29.12
2019-03-25T22:42:15.602Z,29.12
2019-03-25T22:44:16.806Z,29.26
2019-03-25T22:46:17.994Z,29.26
2019-03-25T22:48:19.192Z,29.42
2019-03-25T22:50:20.407Z,29.34
2019-03-25T22:52:21.592Z,29.39
2019-03-25T22:54:22.783Z,29.54
2019-03-25T22:56:23.972Z,29.51
2019-03-25T22:58:25.164Z,29.64
2019-03-25T23:00:26.352Z,29.75
2019-03-25T23:02:27.538Z,29.78
2019-03-25T23:04:28.730Z,29.78
2019-03-25T23:06:29.920Z,29.84
2019-03-25T23:08:31.116Z,29.85
2019-03-25T23:10:32.308Z,29.84
2019-03-25T23:12:33.502Z,29.90
2019-03-25T23:14:34.739Z,29.82
2019-03-25T23:16:35.939Z,29.88
2019-03-25T23:18:37.136Z,30.00
2019-03-25T23:20:38.332Z,29.96
2019-03-25T23:22:39.522Z,30.05
2019-03-25T23:24:40.714Z,30.00
2019-03-25T23:26:41.900Z,30.12
2019-03-25T23:28:43.094Z,30.15
2019-03-25T23:30:44.295Z,30.18
2019-03-25T23:32:45.485Z,30.24
2019-03-25T23:34:46.685Z,30.28
2019-03-25T23:36:47.885Z,30.37
2019-03-25T23:38:49.087Z,30.43
2019-03-25T23:40:50.284Z,30.39
2019-03-25T23:42:51.478Z,30.40
2019-03-25T23:44:52.680Z,30.45
2019-03-25T23:46:53.865Z,30.45
2019-03-25T23:48:55.050Z,30.43
2019-03-25T23:50:56.246Z,30.54
2019-03-25T23:52:57.433Z,30.50
2019-03-25T23:54:58.626Z,30.49
2019-03-25T23:57:00.827Z,30.47
2019-03-25T23:59:02.104Z,30.56
